sensor_id;sensor_type;location;lat;lon;timestamp;pressure;altitude;pressure_sealevel;temperature
22828;BMP180;11580;52.562;13.418;2023-04-06T00:01:07;101168.00;;;9.90
22828;BMP180;11580;52.562;13.418;2023-04-06T00:03:34;101169.00;;;9.90
22828;BMP180;11580;52.562;13.418;2023-04-06T00:06:01;101162.00;;;9.90
22828;BMP180;11580;52.562;13.418;2023-04-06T00:08:30;101161.00;;;9.80
22828;BMP180;11580;52.562;13.418;2023-04-06T00:10:57;101172.00;;;9.80
22828;BMP180;11580;52.562;13.418;2023-04-06T00:13:25;101162.00;;;9.80
22828;BMP180;11580;52.562;13.418;2023-04-06T00:15:52;101156.00;;;9.70
22828;BMP180;11580;52.562;13.418;2023-04-06T00:18:19;101150.00;;;9.70
22828;BMP180;11580;52.562;13.418;2023-04-06T00:20:47;101153.00;;;9.70
22828;BMP180;11580;52.562;13.418;2023-04-06T00:23:14;101151.00;;;9.70
22828;BMP180;11580;52.562;13.418;2023-04-06T00:25:43;101147.00;;;9.70
22828;BMP180;11580;52.562;13.418;2023-04-06T00:28:10;101142.00;;;9.60
22828;BMP180;11580;52.562;13.418;2023-04-06T00:30:38;101150.00;;;9.60
22828;BMP180;11580;52.562;13.418;2023-04-06T00:33:05;101145.00;;;9.50
22828;BMP180;11580;52.562;13.418;2023-04-06T00:35:32;101155.00;;;9.50
22828;BMP180;11580;52.562;13.418;2023-04-06T00:38:00;101146.00;;;9.50
22828;BMP180;11580;52.562;13.418;2023-04-06T00:40:27;101146.00;;;9.50
22828;BMP180;11580;52.562;13.418;2023-04-06T00:42:56;101143.00;;;9.40
22828;BMP180;11580;52.562;13.418;2023-04-06T00:45:24;101140.00;;;9.40
22828;BMP180;11580;52.562;13.418;2023-04-06T00:47:51;101138.00;;;9.40
22828;BMP180;11580;52.562;13.418;2023-04-06T00:50:19;101133.00;;;9.40
22828;BMP180;11580;52.562;13.418;2023-04-06T00:52:46;101145.00;;;9.40
22828;BMP180;11580;52.562;13.418;2023-04-06T00:55:14;101138.00;;;9.40
22828;BMP180;11580;52.562;13.418;2023-04-06T00:57:43;101138.00;;;9.40
22828;BMP180;11580;52.562;13.418;2023-04-06T01:00:13;101124.00;;;9.40
22828;BMP180;11580;52.562;13.418;2023-04-06T01:02:44;101138.00;;;9.30
22828;BMP180;11580;52.562;13.418;2023-04-06T01:05:14;101137.00;;;9.30
22828;BMP180;11580;52.562;13.418;2023-04-06T01:07:50;101137.00;;;9.30
22828;BMP180;11580;52.562;13.418;2023-04-06T01:10:26;101135.00;;;9.30
22828;BMP180;11580;52.562;13.418;2023-04-06T01:13:03;101125.00;;;9.30
22828;BMP180;11580;52.562;13.418;2023-04-06T01:15:55;101109.00;;;9.30
22828;BMP180;11580;52.562;13.418;2023-04-06T01:18:38;101125.00;;;9.30
22828;BMP180;11580;52.562;13.418;2023-04-06T01:21:16;101128.00;;;9.30
22828;BMP180;11580;52.562;13.418;2023-04-06T01:24:04;101133.00;;;9.30
22828;BMP180;11580;52.562;13.418;2023-04-06T01:26:44;101129.00;;;9.30
22828;BMP180;11580;52.562;13.418;2023-04-06T01:29:12;101127.00;;;9.30
22828;BMP180;11580;52.562;13.418;2023-04-06T01:31:40;101136.00;;;9.30
22828;BMP180;11580;52.562;13.418;2023-04-06T01:34:07;101128.00;;;9.30
22828;BMP180;11580;52.562;13.418;2023-04-06T01:36:35;101123.00;;;9.30
22828;BMP180;11580;52.562;13.418;2023-04-06T01:39:20;101133.00;;;9.30
22828;BMP180;11580;52.562;13.418;2023-04-06T01:41:47;101130.00;;;9.30
22828;BMP180;11580;52.562;13.418;2023-04-06T01:44:17;101114.00;;;9.30
22828;BMP180;11580;52.562;13.418;2023-04-06T01:46:50;101133.00;;;9.30
22828;BMP180;11580;52.562;13.418;2023-04-06T01:49:18;101131.00;;;9.30
22828;BMP180;11580;52.562;13.418;2023-04-06T01:51:51;101129.00;;;9.20
22828;BMP180;11580;52.562;13.418;2023-04-06T01:54:21;101127.00;;;9.20
22828;BMP180;11580;52.562;13.418;2023-04-06T01:56:59;101130.00;;;9.20
22828;BMP180;11580;52.562;13.418;2023-04-06T01:59:52;101133.00;;;9.20
22828;BMP180;11580;52.562;13.418;2023-04-06T02:02:52;101117.00;;;9.10
22828;BMP180;11580;52.562;13.418;2023-04-06T02:05:25;101124.00;;;9.10
22828;BMP180;11580;52.562;13.418;2023-04-06T02:07:54;101125.00;;;9.10
22828;BMP180;11580;52.562;13.418;2023-04-06T02:10:32;101126.00;;;9.10
22828;BMP180;11580;52.562;13.418;2023-04-06T02:13:04;101086.00;;;9.10
22828;BMP180;11580;52.562;13.418;2023-04-06T02:15:31;101122.00;;;9.10
22828;BMP180;11580;52.562;13.418;2023-04-06T02:17:59;101126.00;;;9.10
22828;BMP180;11580;52.562;13.418;2023-04-06T02:20:27;101128.00;;;9.00
22828;BMP180;11580;52.562;13.418;2023-04-06T02:22:56;101127.00;;;9.00
22828;BMP180;11580;52.562;13.418;2023-04-06T02:25:23;101133.00;;;9.00
22828;BMP180;11580;52.562;13.418;2023-04-06T02:27:52;101122.00;;;9.00
22828;BMP180;11580;52.562;13.418;2023-04-06T02:30:20;101128.00;;;9.00
22828;BMP180;11580;52.562;13.418;2023-04-06T02:32:48;101122.00;;;9.00
22828;BMP180;11580;52.562;13.418;2023-04-06T02:35:16;101125.00;;;8.90
22828;BMP180;11580;52.562;13.418;2023-04-06T02:37:47;101126.00;;;8.90
22828;BMP180;11580;52.562;13.418;2023-04-06T02:40:15;101124.00;;;8.90
22828;BMP180;11580;52.562;13.418;2023-04-06T02:42:42;101119.00;;;8.90
22828;BMP180;11580;52.562;13.418;2023-04-06T02:45:11;101125.00;;;8.90
22828;BMP180;11580;52.562;13.418;2023-04-06T02:47:43;101123.00;;;8.80
22828;BMP180;11580;52.562;13.418;2023-04-06T02:50:13;101115.00;;;8.80
22828;BMP180;11580;52.562;13.418;2023-04-06T02:52:48;101119.00;;;8.80
22828;BMP180;11580;52.562;13.418;2023-04-06T02:55:16;101116.00;;;8.70
22828;BMP180;11580;52.562;13.418;2023-04-06T02:57:43;101116.00;;;8.70
22828;BMP180;11580;52.562;13.418;2023-04-06T03:00:13;101127.00;;;8.60
22828;BMP180;11580;52.562;13.418;2023-04-06T03:02:41;101130.00;;;8.50
22828;BMP180;11580;52.562;13.418;2023-04-06T03:05:12;101130.00;;;8.40
22828;BMP180;11580;52.562;13.418;2023-04-06T03:07:43;101126.00;;;8.40
22828;BMP180;11580;52.562;13.418;2023-04-06T03:10:17;101130.00;;;8.30
22828;BMP180;11580;52.562;13.418;2023-04-06T03:12:47;101132.00;;;8.20
22828;BMP180;11580;52.562;13.418;2023-04-06T03:15:23;101126.00;;;8.10
22828;BMP180;11580;52.562;13.418;2023-04-06T03:17:57;101123.00;;;8.10
22828;BMP180;11580;52.562;13.418;2023-04-06T03:20:36;101125.00;;;8.00
22828;BMP180;11580;52.562;13.418;2023-04-06T03:23:04;101104.00;;;7.90
22828;BMP180;11580;52.562;13.418;2023-04-06T03:25:36;101130.00;;;7.90
22828;BMP180;11580;52.562;13.418;2023-04-06T03:28:06;101125.00;;;7.80
22828;BMP180;11580;52.562;13.418;2023-04-06T03:30:41;101129.00;;;7.80
22828;BMP180;11580;52.562;13.418;2023-04-06T03:33:08;101125.00;;;7.70
22828;BMP180;11580;52.562;13.418;2023-04-06T03:35:46;101129.00;;;7.60
22828;BMP180;11580;52.562;13.418;2023-04-06T03:38:14;101132.00;;;7.60
22828;BMP180;11580;52.562;13.418;2023-04-06T03:40:41;101129.00;;;7.50
22828;BMP180;11580;52.562;13.418;2023-04-06T03:43:09;101137.00;;;7.50
22828;BMP180;11580;52.562;13.418;2023-04-06T03:45:38;101142.00;;;7.40
22828;BMP180;11580;52.562;13.418;2023-04-06T03:48:06;101135.00;;;7.40
22828;BMP180;11580;52.562;13.418;2023-04-06T03:50:36;101136.00;;;7.30
22828;BMP180;11580;52.562;13.418;2023-04-06T03:53:04;101145.00;;;7.20
22828;BMP180;11580;52.562;13.418;2023-04-06T03:55:33;101136.00;;;7.20
22828;BMP180;11580;52.562;13.418;2023-04-06T03:58:00;101145.00;;;7.10
22828;BMP180;11580;52.562;13.418;2023-04-06T04:00:28;101144.00;;;7.10
22828;BMP180;11580;52.562;13.418;2023-04-06T04:02:55;101149.00;;;7.00
22828;BMP180;11580;52.562;13.418;2023-04-06T04:05:24;101163.00;;;7.00
22828;BMP180;11580;52.562;13.418;2023-04-06T04:07:52;101155.00;;;6.90
22828;BMP180;11580;52.562;13.418;2023-04-06T04:10:23;101143.00;;;6.90
22828;BMP180;11580;52.562;13.418;2023-04-06T04:12:51;101150.00;;;6.90
22828;BMP180;11580;52.562;13.418;2023-04-06T04:15:18;101153.00;;;6.80
22828;BMP180;11580;52.562;13.418;2023-04-06T04:17:47;101148.00;;;6.80
22828;BMP180;11580;52.562;13.418;2023-04-06T04:20:15;101152.00;;;6.70
22828;BMP180;11580;52.562;13.418;2023-04-06T04:22:44;101158.00;;;6.70
22828;BMP180;11580;52.562;13.418;2023-04-06T04:25:12;101150.00;;;6.50
22828;BMP180;11580;52.562;13.418;2023-04-06T04:27:44;101154.00;;;6.60
22828;BMP180;11580;52.562;13.418;2023-04-06T04:30:12;101148.00;;;6.60
22828;BMP180;11580;52.562;13.418;2023-04-06T04:32:39;101149.00;;;6.60
22828;BMP180;11580;52.562;13.418;2023-04-06T04:35:09;101150.00;;;6.60
22828;BMP180;11580;52.562;13.418;2023-04-06T04:37:41;101140.00;;;6.60
22828;BMP180;11580;52.562;13.418;2023-04-06T04:40:12;101149.00;;;6.50
22828;BMP180;11580;52.562;13.418;2023-04-06T04:43:02;101151.00;;;6.50
22828;BMP180;11580;52.562;13.418;2023-04-06T04:45:33;101148.00;;;6.50
22828;BMP180;11580;52.562;13.418;2023-04-06T04:48:09;101151.00;;;6.50
22828;BMP180;11580;52.562;13.418;2023-04-06T04:50:49;101155.00;;;6.50
22828;BMP180;11580;52.562;13.418;2023-04-06T04:53:17;101158.00;;;6.50
22828;BMP180;11580;52.562;13.418;2023-04-06T04:55:46;101156.00;;;6.50
22828;BMP180;11580;52.562;13.418;2023-04-06T04:58:15;101161.00;;;6.50
22828;BMP180;11580;52.562;13.418;2023-04-06T05:00:50;101158.00;;;6.60
22828;BMP180;11580;52.562;13.418;2023-04-06T05:03:22;101141.00;;;6.60
22828;BMP180;11580;52.562;13.418;2023-04-06T05:05:57;101168.00;;;6.60
22828;BMP180;11580;52.562;13.418;2023-04-06T05:08:28;101167.00;;;6.60
22828;BMP180;11580;52.562;13.418;2023-04-06T05:10:57;101166.00;;;6.70
22828;BMP180;11580;52.562;13.418;2023-04-06T05:13:25;101164.00;;;6.70
22828;BMP180;11580;52.562;13.418;2023-04-06T05:15:54;101158.00;;;6.80
22828;BMP180;11580;52.562;13.418;2023-04-06T05:18:31;101164.00;;;6.80
22828;BMP180;11580;52.562;13.418;2023-04-06T05:20:59;101172.00;;;6.90
22828;BMP180;11580;52.562;13.418;2023-04-06T05:23:36;101164.00;;;6.90
22828;BMP180;11580;52.562;13.418;2023-04-06T05:26:05;101166.00;;;7.00
22828;BMP180;11580;52.562;13.418;2023-04-06T05:28:33;101163.00;;;7.10
22828;BMP180;11580;52.562;13.418;2023-04-06T05:31:01;101160.00;;;7.10
22828;BMP180;11580;52.562;13.418;2023-04-06T05:33:36;101167.00;;;7.20
22828;BMP180;11580;52.562;13.418;2023-04-06T05:36:10;101173.00;;;7.30
22828;BMP180;11580;52.562;13.418;2023-04-06T05:38:41;101180.00;;;7.30
22828;BMP180;11580;52.562;13.418;2023-04-06T05:41:23;101186.00;;;7.40
22828;BMP180;11580;52.562;13.418;2023-04-06T05:43:51;101186.00;;;7.40
22828;BMP180;11580;52.562;13.418;2023-04-06T05:46:18;101186.00;;;7.50
22828;BMP180;11580;52.562;13.418;2023-04-06T05:48:46;101190.00;;;7.60
22828;BMP180;11580;52.562;13.418;2023-04-06T05:51:14;101189.00;;;7.60
22828;BMP180;11580;52.562;13.418;2023-04-06T05:53:46;101183.00;;;7.70
22828;BMP180;11580;52.562;13.418;2023-04-06T05:56:14;101186.00;;;7.80
22828;BMP180;11580;52.562;13.418;2023-04-06T05:58:44;101180.00;;;7.80
22828;BMP180;11580;52.562;13.418;2023-04-06T06:01:15;101190.00;;;7.90
22828;BMP180;11580;52.562;13.418;2023-04-06T06:03:45;101199.00;;;8.00
22828;BMP180;11580;52.562;13.418;2023-04-06T06:06:14;101191.00;;;8.00
22828;BMP180;11580;52.562;13.418;2023-04-06T06:09:04;101201.00;;;8.10
22828;BMP180;11580;52.562;13.418;2023-04-06T06:11:36;101193.00;;;8.20
22828;BMP180;11580;52.562;13.418;2023-04-06T06:14:06;101196.00;;;8.30
22828;BMP180;11580;52.562;13.418;2023-04-06T06:16:38;101191.00;;;8.40
22828;BMP180;11580;52.562;13.418;2023-04-06T06:19:07;101187.00;;;8.40
22828;BMP180;11580;52.562;13.418;2023-04-06T06:21:35;101198.00;;;8.50
22828;BMP180;11580;52.562;13.418;2023-04-06T06:24:06;101203.00;;;8.60
22828;BMP180;11580;52.562;13.418;2023-04-06T06:26:34;101200.00;;;8.60
22828;BMP180;11580;52.562;13.418;2023-04-06T06:29:05;101200.00;;;8.70
22828;BMP180;11580;52.562;13.418;2023-04-06T06:31:35;101200.00;;;8.80
22828;BMP180;11580;52.562;13.418;2023-04-06T06:34:03;101205.00;;;8.90
22828;BMP180;11580;52.562;13.418;2023-04-06T06:36:32;101207.00;;;8.90
22828;BMP180;11580;52.562;13.418;2023-04-06T06:39:02;101198.00;;;9.00
22828;BMP180;11580;52.562;13.418;2023-04-06T06:41:30;101203.00;;;9.10
22828;BMP180;11580;52.562;13.418;2023-04-06T06:43:58;101197.00;;;9.20
22828;BMP180;11580;52.562;13.418;2023-04-06T06:46:27;101204.00;;;9.20
22828;BMP180;11580;52.562;13.418;2023-04-06T06:48:54;101207.00;;;9.30
22828;BMP180;11580;52.562;13.418;2023-04-06T06:51:22;101201.00;;;9.40
22828;BMP180;11580;52.562;13.418;2023-04-06T06:53:49;101209.00;;;9.50
22828;BMP180;11580;52.562;13.418;2023-04-06T06:56:16;101212.00;;;9.60
22828;BMP180;11580;52.562;13.418;2023-04-06T06:58:44;101207.00;;;9.60
22828;BMP180;11580;52.562;13.418;2023-04-06T07:01:11;101204.00;;;9.70
22828;BMP180;11580;52.562;13.418;2023-04-06T07:03:40;101210.00;;;9.80
22828;BMP180;11580;52.562;13.418;2023-04-06T07:06:07;101212.00;;;9.90
22828;BMP180;11580;52.562;13.418;2023-04-06T07:08:35;101208.00;;;10.00
22828;BMP180;11580;52.562;13.418;2023-04-06T07:11:03;101208.00;;;10.00
22828;BMP180;11580;52.562;13.418;2023-04-06T07:13:30;101217.00;;;10.10
22828;BMP180;11580;52.562;13.418;2023-04-06T07:15:58;101216.00;;;10.20
22828;BMP180;11580;52.562;13.418;2023-04-06T07:18:27;101217.00;;;10.30
22828;BMP180;11580;52.562;13.418;2023-04-06T07:20:56;101216.00;;;10.40
22828;BMP180;11580;52.562;13.418;2023-04-06T07:23:24;101224.00;;;10.40
22828;BMP180;11580;52.562;13.418;2023-04-06T07:25:52;101215.00;;;10.50
22828;BMP180;11580;52.562;13.418;2023-04-06T07:28:20;101220.00;;;10.60
22828;BMP180;11580;52.562;13.418;2023-04-06T07:30:48;101225.00;;;10.70
22828;BMP180;11580;52.562;13.418;2023-04-06T07:33:16;101220.00;;;10.80
22828;BMP180;11580;52.562;13.418;2023-04-06T07:35:43;101226.00;;;10.90
22828;BMP180;11580;52.562;13.418;2023-04-06T07:38:13;101225.00;;;10.90
22828;BMP180;11580;52.562;13.418;2023-04-06T07:40:41;101230.00;;;11.00
22828;BMP180;11580;52.562;13.418;2023-04-06T07:43:08;101221.00;;;11.10
22828;BMP180;11580;52.562;13.418;2023-04-06T07:45:36;101225.00;;;11.20
22828;BMP180;11580;52.562;13.418;2023-04-06T07:48:03;101221.00;;;11.30
22828;BMP180;11580;52.562;13.418;2023-04-06T07:50:32;101228.00;;;11.40
22828;BMP180;11580;52.562;13.418;2023-04-06T07:52:59;101227.00;;;11.50
22828;BMP180;11580;52.562;13.418;2023-04-06T07:55:29;101227.00;;;11.50
22828;BMP180;11580;52.562;13.418;2023-04-06T07:57:56;101230.00;;;11.60
22828;BMP180;11580;52.562;13.418;2023-04-06T08:00:24;101224.00;;;11.70
22828;BMP180;11580;52.562;13.418;2023-04-06T08:02:51;101229.00;;;11.70
22828;BMP180;11580;52.562;13.418;2023-04-06T08:05:19;101224.00;;;11.80
22828;BMP180;11580;52.562;13.418;2023-04-06T08:07:46;101224.00;;;11.90
22828;BMP180;11580;52.562;13.418;2023-04-06T08:10:14;101225.00;;;11.90
22828;BMP180;11580;52.562;13.418;2023-04-06T08:12:42;101231.00;;;12.00
22828;BMP180;11580;52.562;13.418;2023-04-06T08:15:10;101229.00;;;12.00
22828;BMP180;11580;52.562;13.418;2023-04-06T08:17:37;101226.00;;;12.10
22828;BMP180;11580;52.562;13.418;2023-04-06T08:20:06;101228.00;;;12.20
22828;BMP180;11580;52.562;13.418;2023-04-06T08:22:34;101231.00;;;12.20
22828;BMP180;11580;52.562;13.418;2023-04-06T08:25:01;101234.00;;;12.30
22828;BMP180;11580;52.562;13.418;2023-04-06T08:27:28;101235.00;;;12.30
22828;BMP180;11580;52.562;13.418;2023-04-06T08:29:57;101232.00;;;12.40
22828;BMP180;11580;52.562;13.418;2023-04-06T08:32:25;101231.00;;;12.50
22828;BMP180;11580;52.562;13.418;2023-04-06T08:34:54;101234.00;;;12.50
22828;BMP180;11580;52.562;13.418;2023-04-06T08:37:22;101227.00;;;12.60
22828;BMP180;11580;52.562;13.418;2023-04-06T08:39:49;101229.00;;;12.70
22828;BMP180;11580;52.562;13.418;2023-04-06T08:42:20;101231.00;;;12.70
22828;BMP180;11580;52.562;13.418;2023-04-06T08:44:49;101237.00;;;12.80
22828;BMP180;11580;52.562;13.418;2023-04-06T08:47:19;101240.00;;;12.90
22828;BMP180;11580;52.562;13.418;2023-04-06T08:49:47;101233.00;;;12.90
22828;BMP180;11580;52.562;13.418;2023-04-06T08:52:18;101231.00;;;13.00
22828;BMP180;11580;52.562;13.418;2023-04-06T08:54:47;101232.00;;;13.00
22828;BMP180;11580;52.562;13.418;2023-04-06T08:57:16;101229.00;;;13.10
22828;BMP180;11580;52.562;13.418;2023-04-06T08:59:45;101233.00;;;13.10
22828;BMP180;11580;52.562;13.418;2023-04-06T09:02:19;101228.00;;;13.20
22828;BMP180;11580;52.562;13.418;2023-04-06T09:04:49;101233.00;;;13.20
22828;BMP180;11580;52.562;13.418;2023-04-06T09:07:17;101226.00;;;13.30
22828;BMP180;11580;52.562;13.418;2023-04-06T09:09:45;101231.00;;;13.30
22828;BMP180;11580;52.562;13.418;2023-04-06T09:12:23;101236.00;;;13.40
22828;BMP180;11580;52.562;13.418;2023-04-06T09:14:51;101236.00;;;13.40
22828;BMP180;11580;52.562;13.418;2023-04-06T09:17:25;101228.00;;;13.50
22828;BMP180;11580;52.562;13.418;2023-04-06T09:19:53;101241.00;;;13.50
22828;BMP180;11580;52.562;13.418;2023-04-06T09:22:21;101213.00;;;13.60
22828;BMP180;11580;52.562;13.418;2023-04-06T09:24:52;101231.00;;;13.60
22828;BMP180;11580;52.562;13.418;2023-04-06T09:27:31;101231.00;;;13.70
22828;BMP180;11580;52.562;13.418;2023-04-06T09:30:05;101222.00;;;13.80
22828;BMP180;11580;52.562;13.418;2023-04-06T09:32:45;101228.00;;;13.80
22828;BMP180;11580;52.562;13.418;2023-04-06T09:35:14;101216.00;;;13.80
22828;BMP180;11580;52.562;13.418;2023-04-06T09:37:42;101217.00;;;13.90
22828;BMP180;11580;52.562;13.418;2023-04-06T09:40:11;101210.00;;;13.90
22828;BMP180;11580;52.562;13.418;2023-04-06T09:42:41;101221.00;;;14.00
22828;BMP180;11580;52.562;13.418;2023-04-06T09:45:09;101220.00;;;14.10
22828;BMP180;11580;52.562;13.418;2023-04-06T09:47:42;101211.00;;;14.20
22828;BMP180;11580;52.562;13.418;2023-04-06T09:50:12;101215.00;;;14.30
22828;BMP180;11580;52.562;13.418;2023-04-06T09:52:45;101220.00;;;14.40
22828;BMP180;11580;52.562;13.418;2023-04-06T09:55:23;101213.00;;;14.50
22828;BMP180;11580;52.562;13.418;2023-04-06T09:58:00;101201.00;;;14.60
22828;BMP180;11580;52.562;13.418;2023-04-06T10:00:39;101205.00;;;14.70
22828;BMP180;11580;52.562;13.418;2023-04-06T10:03:19;101206.00;;;14.90
22828;BMP180;11580;52.562;13.418;2023-04-06T10:05:54;101209.00;;;15.00
22828;BMP180;11580;52.562;13.418;2023-04-06T10:08:27;101199.00;;;15.00
22828;BMP180;11580;52.562;13.418;2023-04-06T10:10:55;101211.00;;;15.10
22828;BMP180;11580;52.562;13.418;2023-04-06T10:13:24;101204.00;;;15.20
22828;BMP180;11580;52.562;13.418;2023-04-06T10:15:52;101207.00;;;15.30
22828;BMP180;11580;52.562;13.418;2023-04-06T10:18:21;101203.00;;;15.50
22828;BMP180;11580;52.562;13.418;2023-04-06T10:20:52;101219.00;;;15.70
22828;BMP180;11580;52.562;13.418;2023-04-06T10:23:26;101207.00;;;15.90
22828;BMP180;11580;52.562;13.418;2023-04-06T10:25:59;101199.00;;;16.10
22828;BMP180;11580;52.562;13.418;2023-04-06T10:28:33;101208.00;;;16.40
22828;BMP180;11580;52.562;13.418;2023-04-06T10:31:04;101208.00;;;16.60
22828;BMP180;11580;52.562;13.418;2023-04-06T10:33:34;101217.00;;;16.70
22828;BMP180;11580;52.562;13.418;2023-04-06T10:36:10;101209.00;;;16.90
22828;BMP180;11580;52.562;13.418;2023-04-06T10:38:39;101214.00;;;17.00
22828;BMP180;11580;52.562;13.418;2023-04-06T10:41:10;101214.00;;;17.10
22828;BMP180;11580;52.562;13.418;2023-04-06T10:43:38;101204.00;;;17.20
22828;BMP180;11580;52.562;13.418;2023-04-06T10:46:08;101211.00;;;17.30
22828;BMP180;11580;52.562;13.418;2023-04-06T10:48:43;101210.00;;;17.40
22828;BMP180;11580;52.562;13.418;2023-04-06T10:51:12;101216.00;;;17.40
22828;BMP180;11580;52.562;13.418;2023-04-06T10:53:43;101213.00;;;17.40
22828;BMP180;11580;52.562;13.418;2023-04-06T10:56:12;101207.00;;;17.50
22828;BMP180;11580;52.562;13.418;2023-04-06T10:58:45;101202.00;;;17.40
22828;BMP180;11580;52.562;13.418;2023-04-06T11:01:15;101205.00;;;17.40
22828;BMP180;11580;52.562;13.418;2023-04-06T11:03:45;101205.00;;;17.30
22828;BMP180;11580;52.562;13.418;2023-04-06T11:06:20;101206.00;;;17.30
22828;BMP180;11580;52.562;13.418;2023-04-06T11:08:48;101194.00;;;17.20
22828;BMP180;11580;52.562;13.418;2023-04-06T11:11:18;101189.00;;;17.20
22828;BMP180;11580;52.562;13.418;2023-04-06T11:13:49;101196.00;;;17.20
22828;BMP180;11580;52.562;13.418;2023-04-06T11:16:19;101191.00;;;17.20
22828;BMP180;11580;52.562;13.418;2023-04-06T11:18:50;101194.00;;;17.10
22828;BMP180;11580;52.562;13.418;2023-04-06T11:21:18;101175.00;;;17.10
22828;BMP180;11580;52.562;13.418;2023-04-06T11:23:46;101189.00;;;17.10
22828;BMP180;11580;52.562;13.418;2023-04-06T11:26:14;101194.00;;;17.10
22828;BMP180;11580;52.562;13.418;2023-04-06T11:28:42;101192.00;;;17.10
22828;BMP180;11580;52.562;13.418;2023-04-06T11:31:10;101188.00;;;17.10
22828;BMP180;11580;52.562;13.418;2023-04-06T11:33:38;101187.00;;;17.10
22828;BMP180;11580;52.562;13.418;2023-04-06T11:36:08;101184.00;;;17.10
22828;BMP180;11580;52.562;13.418;2023-04-06T11:38:39;101179.00;;;17.10
22828;BMP180;11580;52.562;13.418;2023-04-06T11:41:07;101179.00;;;17.10
22828;BMP180;11580;52.562;13.418;2023-04-06T11:43:34;101182.00;;;17.10
22828;BMP180;11580;52.562;13.418;2023-04-06T11:46:02;101184.00;;;17.10
22828;BMP180;11580;52.562;13.418;2023-04-06T11:48:30;101182.00;;;17.10
22828;BMP180;11580;52.562;13.418;2023-04-06T11:50:59;101173.00;;;17.00
22828;BMP180;11580;52.562;13.418;2023-04-06T11:53:28;101169.00;;;17.00
22828;BMP180;11580;52.562;13.418;2023-04-06T11:55:56;101173.00;;;17.00
22828;BMP180;11580;52.562;13.418;2023-04-06T11:58:23;101167.00;;;17.00
22828;BMP180;11580;52.562;13.418;2023-04-06T12:00:50;101164.00;;;17.00
22828;BMP180;11580;52.562;13.418;2023-04-06T12:03:18;101162.00;;;17.10
22828;BMP180;11580;52.562;13.418;2023-04-06T12:05:46;101164.00;;;17.10
22828;BMP180;11580;52.562;13.418;2023-04-06T12:08:13;101154.00;;;17.30
22828;BMP180;11580;52.562;13.418;2023-04-06T12:10:42;101164.00;;;17.40
22828;BMP180;11580;52.562;13.418;2023-04-06T12:13:09;101161.00;;;17.50
22828;BMP180;11580;52.562;13.418;2023-04-06T12:15:36;101165.00;;;17.70
22828;BMP180;11580;52.562;13.418;2023-04-06T12:18:03;101164.00;;;17.80
22828;BMP180;11580;52.562;13.418;2023-04-06T12:20:31;101166.00;;;18.10
22828;BMP180;11580;52.562;13.418;2023-04-06T12:22:59;101164.00;;;18.30
22828;BMP180;11580;52.562;13.418;2023-04-06T12:25:26;101161.00;;;18.50
22828;BMP180;11580;52.562;13.418;2023-04-06T12:27:55;101165.00;;;18.70
22828;BMP180;11580;52.562;13.418;2023-04-06T12:30:22;101162.00;;;18.90
22828;BMP180;11580;52.562;13.418;2023-04-06T12:32:50;101160.00;;;19.00
22828;BMP180;11580;52.562;13.418;2023-04-06T12:35:18;101165.00;;;19.10
22828;BMP180;11580;52.562;13.418;2023-04-06T12:37:45;101164.00;;;19.20
22828;BMP180;11580;52.562;13.418;2023-04-06T12:40:13;101171.00;;;19.10
22828;BMP180;11580;52.562;13.418;2023-04-06T12:42:40;101164.00;;;19.10
22828;BMP180;11580;52.562;13.418;2023-04-06T12:45:10;101166.00;;;19.00
22828;BMP180;11580;52.562;13.418;2023-04-06T12:47:38;101163.00;;;18.80
22828;BMP180;11580;52.562;13.418;2023-04-06T12:50:07;101163.00;;;18.70
22828;BMP180;11580;52.562;13.418;2023-04-06T12:52:34;101161.00;;;18.50
22828;BMP180;11580;52.562;13.418;2023-04-06T12:55:02;101150.00;;;18.20
22828;BMP180;11580;52.562;13.418;2023-04-06T12:57:31;101150.00;;;18.00
22828;BMP180;11580;52.562;13.418;2023-04-06T12:59:58;101140.00;;;17.80
22828;BMP180;11580;52.562;13.418;2023-04-06T13:02:27;101131.00;;;17.70
22828;BMP180;11580;52.562;13.418;2023-04-06T13:04:54;101130.00;;;17.60
22828;BMP180;11580;52.562;13.418;2023-04-06T13:07:22;101094.00;;;17.50
22828;BMP180;11580;52.562;13.418;2023-04-06T13:09:51;101129.00;;;17.40
22828;BMP180;11580;52.562;13.418;2023-04-06T13:12:18;101132.00;;;17.40
22828;BMP180;11580;52.562;13.418;2023-04-06T13:14:46;101139.00;;;17.30
22828;BMP180;11580;52.562;13.418;2023-04-06T13:17:17;101129.00;;;17.30
22828;BMP180;11580;52.562;13.418;2023-04-06T13:19:45;101126.00;;;17.20
22828;BMP180;11580;52.562;13.418;2023-04-06T13:22:13;101126.00;;;17.10
22828;BMP180;11580;52.562;13.418;2023-04-06T13:24:41;101122.00;;;17.00
22828;BMP180;11580;52.562;13.418;2023-04-06T13:27:08;101125.00;;;17.00
22828;BMP180;11580;52.562;13.418;2023-04-06T13:29:37;101106.00;;;16.90
22828;BMP180;11580;52.562;13.418;2023-04-06T13:32:05;101122.00;;;16.90
22828;BMP180;11580;52.562;13.418;2023-04-06T13:34:32;101120.00;;;16.80
22828;BMP180;11580;52.562;13.418;2023-04-06T13:37:01;101108.00;;;16.80
22828;BMP180;11580;52.562;13.418;2023-04-06T13:39:28;101122.00;;;16.70
22828;BMP180;11580;52.562;13.418;2023-04-06T13:41:55;101110.00;;;16.70
22828;BMP180;11580;52.562;13.418;2023-04-06T13:44:23;101111.00;;;16.60
22828;BMP180;11580;52.562;13.418;2023-04-06T13:46:50;101113.00;;;16.60
22828;BMP180;11580;52.562;13.418;2023-04-06T13:49:18;101115.00;;;16.60
22828;BMP180;11580;52.562;13.418;2023-04-06T13:51:45;101106.00;;;16.50
22828;BMP180;11580;52.562;13.418;2023-04-06T13:54:14;101104.00;;;16.50
22828;BMP180;11580;52.562;13.418;2023-04-06T13:56:41;101107.00;;;16.50
22828;BMP180;11580;52.562;13.418;2023-04-06T13:59:08;101102.00;;;16.60
22828;BMP180;11580;52.562;13.418;2023-04-06T14:01:35;101102.00;;;16.60
22828;BMP180;11580;52.562;13.418;2023-04-06T14:04:03;101110.00;;;16.60
22828;BMP180;11580;52.562;13.418;2023-04-06T14:06:31;101109.00;;;16.60